createdAt,value
2022-11-14T00:01:29.187Z,19.74
2022-11-14T00:04:30.684Z,19.62
2022-11-14T00:07:37.205Z,19.04
2022-11-14T00:10:38.422Z,18.79
2022-11-14T00:13:45.216Z,18.48
2022-11-14T00:16:59.116Z,18.14
2022-11-14T00:20:07.277Z,18.16
2022-11-14T00:23:14.275Z,18.49
2022-11-14T00:26:15.630Z,17.90
2022-11-14T00:29:23.195Z,18.09
2022-11-14T00:32:24.682Z,17.67
2022-11-14T00:35:31.240Z,17.72
2022-11-14T00:38:32.644Z,18.28
2022-11-14T00:41:39.175Z,17.52
2022-11-14T00:44:40.463Z,17.17
2022-11-14T00:47:47.250Z,17.60
2022-11-14T00:50:48.448Z,17.59
2022-11-14T00:53:55.189Z,17.70
2022-11-14T00:57:02.167Z,17.41
2022-11-14T01:00:02.724Z,17.72
2022-11-14T01:03:09.189Z,18.02
2022-11-14T01:06:16.905Z,18.09
2022-11-14T01:09:25.271Z,18.06
2022-11-14T01:12:25.565Z,18.59
2022-11-14T01:15:33.169Z,18.27
2022-11-14T01:18:41.594Z,18.32
2022-11-14T01:21:42.178Z,18.63
2022-11-14T01:24:43.461Z,18.56
2022-11-14T01:27:50.283Z,18.18
2022-11-14T01:30:58.282Z,17.70
2022-11-14T01:34:00.524Z,17.91
2022-11-14T01:37:08.205Z,17.90
2022-11-14T01:40:09.020Z,17.75
2022-11-14T01:43:25.203Z,18.00
2022-11-14T01:46:45.543Z,18.03
2022-11-14T01:49:56.269Z,18.11
2022-11-14T01:53:03.279Z,17.94
2022-11-14T01:56:14.281Z,18.19
2022-11-14T01:59:28.182Z,18.27
2022-11-14T02:02:36.214Z,18.68
2022-11-14T02:05:37.549Z,18.63
2022-11-14T02:08:39.191Z,18.95
2022-11-14T02:11:51.311Z,18.94
2022-11-14T02:14:54.567Z,19.08
2022-11-14T02:18:01.180Z,19.25
2022-11-14T02:21:01.549Z,19.50
2022-11-14T02:24:08.297Z,19.49
2022-11-14T02:27:10.824Z,19.31
2022-11-14T02:30:21.253Z,19.01
2022-11-14T02:33:30.259Z,18.99
2022-11-14T02:36:38.278Z,18.70
2022-11-14T02:39:38.594Z,18.73
2022-11-14T02:42:46.251Z,18.78
2022-11-14T02:45:46.576Z,18.82
2022-11-14T02:48:54.272Z,18.72
2022-11-14T02:51:54.612Z,19.25
2022-11-14T02:55:01.263Z,19.39
2022-11-14T02:58:01.554Z,19.27
2022-11-14T03:01:20.410Z,19.70
2022-11-14T03:04:28.245Z,19.17
2022-11-14T03:07:28.516Z,19.43
2022-11-14T03:10:37.228Z,19.30
2022-11-14T03:13:37.964Z,19.42
2022-11-14T03:16:46.241Z,19.88
2022-11-14T03:19:46.382Z,19.82
2022-11-14T03:22:54.181Z,19.73
2022-11-14T03:26:02.255Z,20.24
2022-11-14T03:29:09.249Z,19.82
2022-11-14T03:32:16.215Z,19.97
2022-11-14T03:35:17.514Z,20.03
2022-11-14T03:38:26.343Z,19.98
2022-11-14T03:41:26.548Z,20.41
2022-11-14T03:44:34.181Z,20.46
2022-11-14T03:47:41.340Z,21.51
2022-11-14T03:50:43.882Z,21.66
2022-11-14T03:53:51.192Z,21.18
2022-11-14T03:56:52.415Z,21.60
2022-11-14T03:59:59.173Z,21.99
2022-11-14T04:03:00.478Z,21.36
2022-11-14T04:06:07.267Z,21.62
2022-11-14T04:09:07.757Z,21.88
2022-11-14T04:12:15.895Z,21.55
2022-11-14T04:15:17.179Z,21.73
2022-11-14T04:18:25.152Z,21.95
2022-11-14T04:21:32.252Z,21.80
2022-11-14T04:24:40.263Z,21.64
2022-11-14T04:27:40.504Z,20.97
2022-11-14T04:30:47.234Z,21.26
2022-11-14T04:33:54.270Z,21.05
2022-11-14T04:36:54.492Z,20.74
2022-11-14T04:40:06.165Z,20.85
2022-11-14T04:43:06.712Z,20.60
2022-11-14T04:46:13.510Z,20.69
2022-11-14T04:49:13.792Z,20.48
2022-11-14T04:52:21.246Z,20.43
2022-11-14T04:55:28.163Z,20.10
2022-11-14T04:58:29.800Z,20.30
2022-11-14T05:01:38.266Z,20.59
2022-11-14T05:04:39.569Z,21.42
2022-11-14T05:07:46.246Z,20.29
2022-11-14T05:10:47.863Z,20.15
2022-11-14T05:13:55.254Z,19.86
2022-11-14T05:17:08.071Z,19.99
2022-11-14T05:20:15.304Z,20.72
2022-11-14T05:23:19.525Z,20.00
2022-11-14T05:26:27.169Z,20.52
2022-11-14T05:29:34.155Z,20.92
2022-11-14T05:32:35.493Z,20.37
2022-11-14T05:35:43.202Z,20.16
2022-11-14T05:38:52.188Z,20.06
2022-11-14T05:41:59.169Z,20.20
2022-11-14T05:44:59.465Z,20.50
2022-11-14T05:48:07.209Z,20.45
2022-11-14T05:51:08.891Z,20.54
2022-11-14T05:54:16.144Z,20.47
2022-11-14T05:57:23.260Z,20.48
2022-11-14T06:00:26.674Z,20.57
2022-11-14T06:03:33.149Z,20.34
2022-11-14T06:06:33.513Z,20.17
2022-11-14T06:09:40.129Z,20.01
2022-11-14T06:12:40.581Z,20.27
2022-11-14T06:15:47.243Z,20.40
2022-11-14T06:18:48.498Z,20.74
2022-11-14T06:21:56.123Z,21.02
2022-11-14T06:25:03.217Z,20.13
2022-11-14T06:28:11.201Z,20.20
2022-11-14T06:31:12.511Z,20.57
2022-11-14T06:34:21.140Z,20.20
2022-11-14T06:37:32.539Z,20.80
2022-11-14T06:40:33.428Z,20.62
2022-11-14T06:43:40.135Z,20.23
2022-11-14T06:46:40.451Z,20.63
2022-11-14T06:49:47.176Z,20.64
2022-11-14T06:52:48.372Z,20.39
2022-11-14T06:55:49.155Z,20.45
2022-11-14T06:59:02.221Z,20.82
2022-11-14T07:02:02.484Z,20.88
2022-11-14T07:05:10.128Z,21.35
2022-11-14T07:08:10.609Z,21.02
2022-11-14T07:11:19.128Z,20.98
2022-11-14T07:14:19.379Z,21.67
2022-11-14T07:17:30.748Z,21.54
2022-11-14T07:20:32.424Z,21.56
2022-11-14T07:23:40.221Z,21.94
2022-11-14T07:26:48.202Z,21.46
2022-11-14T07:29:55.167Z,21.05
2022-11-14T07:33:06.211Z,21.37
2022-11-14T07:36:13.141Z,21.52
2022-11-14T07:39:20.207Z,21.79
2022-11-14T07:42:27.121Z,21.80
2022-11-14T07:45:35.125Z,21.52
2022-11-14T07:48:37.545Z,21.55
2022-11-14T07:51:45.129Z,21.52
2022-11-14T07:54:52.215Z,21.35
2022-11-14T07:57:55.576Z,21.80
2022-11-14T08:01:02.346Z,21.81
2022-11-14T08:04:10.117Z,21.76
2022-11-14T08:07:17.267Z,22.04
2022-11-14T08:10:19.185Z,21.68
2022-11-14T08:13:32.017Z,22.07
2022-11-14T08:16:33.467Z,21.71
2022-11-14T08:19:41.124Z,21.60
2022-11-14T08:22:41.371Z,21.74
2022-11-14T08:25:48.095Z,21.49
2022-11-14T08:28:56.219Z,21.87
2022-11-14T08:32:00.082Z,21.64
2022-11-14T08:35:07.125Z,21.80
2022-11-14T08:38:09.516Z,21.84
2022-11-14T08:41:16.122Z,21.34
2022-11-14T08:44:17.629Z,21.64
2022-11-14T08:47:24.219Z,21.68
2022-11-14T08:50:24.560Z,21.34
2022-11-14T08:53:31.126Z,21.61
2022-11-14T08:56:38.212Z,21.47
2022-11-14T08:59:45.121Z,21.85
2022-11-14T09:02:53.150Z,21.80
2022-11-14T09:05:55.137Z,21.56
2022-11-14T09:09:02.217Z,21.68
2022-11-14T09:12:03.395Z,22.08
2022-11-14T09:15:10.117Z,21.77
2022-11-14T09:18:25.185Z,21.64
2022-11-14T09:21:32.100Z,21.05
2022-11-14T09:24:32.586Z,21.54
2022-11-14T09:27:40.103Z,21.35
2022-11-14T09:30:49.185Z,21.39
2022-11-14T09:33:57.212Z,21.34
2022-11-14T09:36:57.478Z,21.51
2022-11-14T09:40:04.212Z,21.76
2022-11-14T09:43:38.102Z,21.69
2022-11-14T09:46:46.116Z,21.65
2022-11-14T09:49:59.198Z,21.85
2022-11-14T09:53:11.117Z,21.49
2022-11-14T09:56:18.092Z,21.51
2022-11-14T09:59:18.675Z,21.51
2022-11-14T10:02:28.245Z,21.40
2022-11-14T10:05:51.820Z,21.17
2022-11-14T10:09:19.211Z,21.41
2022-11-14T10:12:54.105Z,21.22
2022-11-14T10:16:07.101Z,21.61
2022-11-14T10:19:27.663Z,21.52
2022-11-14T10:23:01.598Z,21.60
2022-11-14T10:26:13.930Z,21.47
2022-11-14T10:29:56.116Z,21.28
2022-11-14T10:33:22.217Z,21.68
2022-11-14T10:36:37.177Z,21.50
2022-11-14T10:39:55.119Z,21.19
2022-11-14T10:43:10.101Z,21.16
2022-11-14T10:46:26.075Z,21.22
2022-11-14T10:49:51.103Z,21.20
2022-11-14T10:53:05.100Z,21.48
2022-11-14T10:56:06.512Z,21.31
2022-11-14T10:59:14.098Z,21.12
2022-11-14T11:02:14.522Z,21.21
2022-11-14T11:05:25.182Z,21.29
2022-11-14T11:08:48.961Z,21.47
2022-11-14T11:12:06.134Z,21.12
2022-11-14T11:15:21.452Z,20.82
2022-11-14T11:18:35.353Z,21.01
2022-11-14T11:21:53.517Z,21.08
2022-11-14T11:25:00.103Z,20.83
2022-11-14T11:28:27.113Z,21.23
2022-11-14T11:31:27.377Z,21.38
2022-11-14T11:34:42.207Z,20.88
2022-11-14T11:38:19.097Z,20.86
2022-11-14T11:42:07.679Z,20.92
2022-11-14T11:45:13.179Z,21.08
2022-11-14T11:48:37.258Z,20.86
2022-11-14T11:51:42.193Z,20.91
2022-11-14T11:55:31.551Z,20.76
2022-11-14T11:58:46.254Z,20.72
2022-11-14T12:01:53.251Z,20.80
2022-11-14T12:04:56.235Z,20.35
2022-11-14T12:08:21.229Z,20.86
2022-11-14T12:11:25.676Z,20.75
2022-11-14T12:14:56.118Z,20.54
2022-11-14T12:18:12.051Z,20.91
2022-11-14T12:21:29.264Z,20.62
2022-11-14T12:24:53.650Z,20.93
2022-11-14T12:28:24.127Z,20.64
2022-11-14T12:31:33.183Z,20.35
2022-11-14T12:34:49.162Z,20.77
2022-11-14T12:38:02.175Z,20.59
2022-11-14T12:41:04.078Z,20.59
2022-11-14T12:44:43.157Z,20.57
2022-11-14T12:48:26.911Z,20.18
2022-11-14T12:51:40.094Z,20.53
2022-11-14T12:54:57.278Z,20.25
2022-11-14T12:58:19.454Z,20.61
2022-11-14T13:01:33.208Z,20.75
2022-11-14T13:04:58.196Z,20.68
2022-11-14T13:08:31.706Z,20.71
2022-11-14T13:12:20.108Z,20.57
2022-11-14T13:15:56.254Z,20.70
2022-11-14T13:19:32.253Z,20.62
2022-11-14T13:22:41.293Z,20.19
2022-11-14T13:25:48.189Z,20.09
2022-11-14T13:28:50.501Z,20.12
2022-11-14T13:32:01.174Z,20.46
2022-11-14T13:35:13.141Z,20.54
2022-11-14T13:38:41.576Z,20.52
2022-11-14T13:42:18.185Z,20.40
2022-11-14T13:46:01.196Z,20.36
2022-11-14T13:49:24.583Z,20.33
2022-11-14T13:52:32.116Z,20.15
2022-11-14T13:55:56.131Z,20.12
2022-11-14T13:59:29.265Z,20.23
2022-11-14T14:02:35.561Z,20.06
2022-11-14T14:06:05.331Z,20.09
2022-11-14T14:09:12.674Z,20.07
2022-11-14T14:12:27.093Z,20.05
2022-11-14T14:15:46.755Z,20.04
2022-11-14T14:19:25.737Z,20.19
2022-11-14T14:22:26.475Z,20.09
2022-11-14T14:25:59.189Z,19.97
2022-11-14T14:29:14.137Z,19.98
2022-11-14T14:32:29.193Z,19.98
2022-11-14T14:35:40.356Z,19.79
2022-11-14T14:38:49.109Z,19.66
2022-11-14T14:41:58.070Z,19.87
2022-11-14T14:44:58.496Z,19.15
2022-11-14T14:48:15.172Z,19.62
2022-11-14T14:51:22.483Z,19.69
2022-11-14T14:54:32.188Z,19.77
2022-11-14T14:57:33.639Z,19.84
2022-11-14T15:00:41.172Z,19.48
2022-11-14T15:03:46.523Z,19.61
2022-11-14T15:06:55.233Z,19.86
2022-11-14T15:10:09.643Z,19.86
2022-11-14T15:13:23.167Z,20.01
2022-11-14T15:16:24.572Z,20.00
2022-11-14T15:19:35.152Z,20.07
2022-11-14T15:22:36.629Z,19.87
2022-11-14T15:25:45.172Z,19.79
2022-11-14T15:28:45.564Z,19.82
2022-11-14T15:32:12.169Z,20.09
2022-11-14T15:35:37.087Z,20.08
2022-11-14T15:38:46.424Z,20.00
2022-11-14T15:41:54.057Z,20.18
2022-11-14T15:44:56.151Z,20.20
2022-11-14T15:48:14.057Z,20.05
2022-11-14T15:51:14.620Z,20.12
2022-11-14T15:54:39.085Z,20.20
2022-11-14T15:57:52.076Z,20.25
2022-11-14T16:01:07.500Z,20.23
2022-11-14T16:04:23.148Z,20.30
2022-11-14T16:07:34.814Z,20.26
2022-11-14T16:10:43.137Z,20.14
2022-11-14T16:13:51.151Z,20.02
2022-11-14T16:16:51.382Z,19.98
2022-11-14T16:19:59.058Z,19.97
2022-11-14T16:23:07.118Z,20.03
2022-11-14T16:26:07.428Z,19.92
2022-11-14T16:29:14.169Z,19.98
2022-11-14T16:32:24.168Z,19.88
2022-11-14T16:35:26.855Z,19.77
2022-11-14T16:38:34.042Z,19.84
2022-11-14T16:41:34.457Z,20.01
2022-11-14T16:44:45.093Z,20.05
2022-11-14T16:47:49.209Z,20.04
2022-11-14T16:50:57.026Z,19.97
2022-11-14T16:53:58.070Z,19.90
2022-11-14T16:57:05.148Z,19.91
2022-11-14T17:00:09.175Z,19.92
2022-11-14T17:03:16.150Z,19.74
2022-11-14T17:06:17.544Z,19.44
2022-11-14T17:09:28.152Z,19.71
2022-11-14T17:12:29.741Z,19.61
2022-11-14T17:15:39.161Z,19.65
2022-11-14T17:18:53.990Z,19.45
2022-11-14T17:22:02.174Z,19.56
2022-11-14T17:25:09.045Z,19.33
2022-11-14T17:28:16.251Z,19.58
2022-11-14T17:31:18.115Z,19.26
2022-11-14T17:34:26.169Z,19.16
2022-11-14T17:37:26.588Z,19.37
2022-11-14T17:40:34.166Z,19.43
2022-11-14T17:43:38.992Z,19.16
2022-11-14T17:46:48.157Z,19.08
2022-11-14T17:49:48.488Z,19.14
2022-11-14T17:52:55.074Z,18.97
2022-11-14T17:56:03.519Z,18.93
2022-11-14T17:59:04.128Z,18.94
2022-11-14T18:02:11.192Z,18.62
2022-11-14T18:05:12.592Z,18.66
2022-11-14T18:08:20.090Z,18.50
2022-11-14T18:11:23.586Z,17.99
2022-11-14T18:14:30.148Z,18.18
2022-11-14T18:17:30.467Z,18.23
2022-11-14T18:20:37.055Z,18.47
2022-11-14T18:23:39.754Z,18.40
2022-11-14T18:26:47.136Z,18.40
2022-11-14T18:29:47.440Z,18.31
2022-11-14T18:32:55.155Z,18.38
2022-11-14T18:36:16.114Z,18.30
2022-11-14T18:39:23.154Z,18.20
2022-11-14T18:42:24.704Z,18.20
2022-11-14T18:45:31.071Z,18.42
2022-11-14T18:48:39.147Z,18.28
2022-11-14T18:51:50.056Z,18.31
2022-11-14T18:54:57.039Z,18.24
2022-11-14T18:57:58.539Z,18.32
2022-11-14T19:01:05.108Z,18.17
2022-11-14T19:04:16.122Z,18.18
2022-11-14T19:07:24.087Z,18.10
2022-11-14T19:10:31.035Z,17.80
2022-11-14T19:13:34.631Z,17.97
2022-11-14T19:16:43.113Z,17.95
2022-11-14T19:19:50.144Z,17.77
2022-11-14T19:22:57.031Z,17.90
2022-11-14T19:25:57.513Z,17.84
2022-11-14T19:29:05.138Z,17.95
2022-11-14T19:32:06.859Z,17.90
2022-11-14T19:35:20.239Z,17.99
2022-11-14T19:38:28.150Z,17.92
2022-11-14T19:41:38.045Z,18.16
2022-11-14T19:44:45.056Z,18.15
2022-11-14T19:47:46.384Z,17.96
2022-11-14T19:50:54.136Z,17.88
2022-11-14T19:53:55.320Z,18.19
2022-11-14T19:57:02.069Z,17.80
2022-11-14T20:00:09.186Z,18.02
2022-11-14T20:03:09.448Z,18.19
2022-11-14T20:06:25.051Z,17.87
2022-11-14T20:09:26.429Z,17.93
2022-11-14T20:12:33.125Z,18.29
2022-11-14T20:15:33.400Z,18.29
2022-11-14T20:18:40.060Z,18.20
2022-11-14T20:21:42.458Z,18.01
2022-11-14T20:24:49.073Z,18.09
2022-11-14T20:27:57.007Z,18.02
2022-11-14T20:31:10.061Z,17.98
2022-11-14T20:34:17.114Z,17.70
2022-11-14T20:37:17.333Z,17.90
2022-11-14T20:40:25.098Z,17.68
2022-11-14T20:43:27.147Z,17.84
2022-11-14T20:46:35.123Z,17.79
2022-11-14T20:49:43.069Z,17.88
2022-11-14T20:52:50.118Z,17.84
2022-11-14T20:56:02.026Z,17.98
2022-11-14T20:59:10.067Z,17.73
2022-11-14T21:02:21.208Z,17.81
2022-11-14T21:05:21.397Z,17.92
2022-11-14T21:08:28.360Z,17.98
2022-11-14T21:11:28.470Z,17.70
2022-11-14T21:14:35.001Z,17.75
2022-11-14T21:17:36.410Z,17.79
2022-11-14T21:20:43.026Z,17.80
2022-11-14T21:23:44.421Z,17.84
2022-11-14T21:26:52.097Z,17.77
2022-11-14T21:29:52.393Z,17.61
2022-11-14T21:33:02.013Z,17.68
2022-11-14T21:36:30.183Z,17.80
2022-11-14T21:39:29.298Z,17.85
2022-11-14T21:42:37.144Z,17.85
2022-11-14T21:45:45.026Z,17.88
2022-11-14T21:48:55.120Z,17.87
2022-11-14T21:52:02.193Z,17.88
2022-11-14T21:55:02.412Z,17.79
2022-11-14T21:58:08.790Z,17.53
2022-11-14T22:01:16.567Z,17.45
2022-11-14T22:04:23.135Z,17.33
2022-11-14T22:07:23.492Z,17.41
2022-11-14T22:10:31.005Z,17.68
2022-11-14T22:13:32.753Z,17.50
2022-11-14T22:16:40.110Z,17.60
2022-11-14T22:19:40.401Z,17.67
2022-11-14T22:22:48.017Z,17.64
2022-11-14T22:25:56.105Z,17.44
2022-11-14T22:28:56.263Z,17.50
2022-11-14T22:32:04.016Z,17.45
2022-11-14T22:35:04.338Z,17.51
2022-11-14T22:38:11.098Z,17.49
2022-11-14T22:41:32.677Z,17.50
2022-11-14T22:44:40.012Z,17.54
2022-11-14T22:47:40.235Z,17.46
2022-11-14T22:50:47.007Z,17.26
2022-11-14T22:53:59.133Z,17.37
2022-11-14T22:57:05.994Z,17.38
2022-11-14T23:00:13.036Z,17.42
2022-11-14T23:03:19.085Z,17.48
2022-11-14T23:06:27.996Z,17.51
2022-11-14T23:09:30.882Z,17.32
2022-11-14T23:12:37.996Z,17.46
2022-11-14T23:15:38.507Z,17.52
2022-11-14T23:18:46.120Z,17.38
2022-11-14T23:21:59.087Z,17.32
2022-11-14T23:25:06.088Z,17.38
2022-11-14T23:28:13.094Z,17.26
2022-11-14T23:31:14.875Z,17.39
2022-11-14T23:34:22.984Z,17.12
2022-11-14T23:37:24.271Z,17.07
2022-11-14T23:40:31.008Z,16.99
2022-11-14T23:43:31.872Z,17.27
2022-11-14T23:46:39.991Z,17.24
2022-11-14T23:49:47.087Z,17.09
2022-11-14T23:52:47.377Z,17.09
2022-11-14T23:56:05.993Z,17.00
2022-11-14T23:59:06.407Z,17.21
